Time;durP1;ratioP1;P1;durP2;ratioP2;P2;SDS_P1;SDS_P2;PMS_P1;PMS_P2;Temp;Humidity;BMP_temperature;BMP_pressure;BME280_temperature;BME280_humidity;BME280_pressure;Samples;Min_cycle;Max_cycle;Signal;HPM_P1;HPM_P2
2024/04/07 00:01:13;;;;;;;2.70;0.90;;;;;;;15.00;100.00;100785.25;5048660;28;20523;-66
2024/04/07 00:03:39;;;;;;;2.90;0.93;;;;;;;14.99;100.00;100782.84;5055475;28;20556;-66
2024/04/07 00:06:07;;;;;;;2.30;0.67;;;;;;;14.94;100.00;100788.47;5055273;28;20538;-66
2024/04/07 00:08:33;;;;;;;2.77;0.90;;;;;;;14.93;100.00;100784.97;5054959;28;20199;-66
2024/04/07 00:11:03;;;;;;;2.40;0.80;;;;;;;14.87;100.00;100784.34;5055523;28;20812;-66
2024/04/07 00:13:30;;;;;;;2.50;0.80;;;;;;;14.89;100.00;100782.06;5054942;28;20227;-66
2024/04/07 00:15:57;;;;;;;2.30;0.60;;;;;;;14.86;100.00;100787.38;5053565;28;20492;-66
2024/04/07 00:18:23;;;;;;;2.83;0.83;;;;;;;14.83;100.00;100786.13;5052641;28;20537;-66
2024/04/07 00:21:00;;;;;;;2.77;1.00;;;;;;;14.79;100.00;100792.53;5055717;28;20442;-66
2024/04/07 00:23:25;;;;;;;3.10;1.10;;;;;;;14.72;99.62;100787.56;5054545;28;20474;-66
2024/04/07 00:25:52;;;;;;;2.40;0.77;;;;;;;14.66;98.93;100783.41;5055693;28;20442;-65
2024/04/07 00:28:18;;;;;;;3.90;0.93;;;;;;;14.64;98.26;100785.66;5053022;28;20232;-65
2024/04/07 00:30:46;;;;;;;2.60;0.90;;;;;;;14.60;98.79;100779.25;5055385;28;20533;-65
2024/04/07 00:33:11;;;;;;;2.90;0.90;;;;;;;14.58;99.68;100778.78;5054453;28;20296;-65
2024/04/07 00:35:38;;;;;;;2.30;0.60;;;;;;;14.54;100.00;100780.53;5055276;28;20538;-65
2024/04/07 00:38:04;;;;;;;2.40;0.70;;;;;;;14.53;100.00;100778.94;5052498;28;20299;-65
2024/04/07 00:40:31;;;;;;;3.30;0.87;;;;;;;14.50;100.00;100774.94;5054489;28;20438;-66
2024/04/07 00:42:57;;;;;;;3.10;1.20;;;;;;;14.48;100.00;100769.00;5054042;28;20482;-66
2024/04/07 00:45:24;;;;;;;3.27;1.30;;;;;;;14.46;100.00;100764.97;5053560;28;20430;-65
2024/04/07 00:47:51;;;;;;;3.53;1.33;;;;;;;14.45;100.00;100771.53;5054132;28;20660;-66
2024/04/07 00:50:18;;;;;;;7.57;1.30;;;;;;;14.42;100.00;100774.91;5054302;28;20484;-66
2024/04/07 00:52:44;;;;;;;2.87;0.97;;;;;;;14.41;100.00;100762.41;5034785;28;20565;-66
2024/04/07 00:55:11;;;;;;;2.83;0.97;;;;;;;14.34;100.00;100763.72;5042138;28;20565;-67
2024/04/07 00:57:38;;;;;;;3.03;0.83;;;;;;;14.32;100.00;100765.94;5052685;28;20667;-67
2024/04/07 01:00:05;;;;;;;3.03;0.93;;;;;;;14.30;100.00;100760.03;5053887;28;20454;-67
2024/04/07 01:02:31;;;;;;;3.07;1.10;;;;;;;14.28;100.00;100756.00;5053850;28;20469;-66
2024/04/07 01:04:59;;;;;;;2.30;0.73;;;;;;;14.23;100.00;100765.13;5054141;28;20533;-67
2024/04/07 01:07:25;;;;;;;2.20;0.60;;;;;;;14.21;100.00;100761.94;5052283;28;20234;-67
2024/04/07 01:09:52;;;;;;;2.50;1.00;;;;;;;14.14;100.00;100761.63;5052718;28;20482;-67
2024/04/07 01:12:17;;;;;;;2.47;0.70;;;;;;;14.11;100.00;100756.81;5052442;28;20204;-66
2024/04/07 01:14:44;;;;;;;2.23;0.53;;;;;;;14.12;100.00;100759.22;5054214;28;20452;-66
2024/04/07 01:17:10;;;;;;;2.30;0.50;;;;;;;14.12;100.00;100755.66;5053692;28;20200;-67
2024/04/07 01:19:36;;;;;;;2.70;0.90;;;;;;;14.09;100.00;100753.63;5053126;28;20545;-66
2024/04/07 01:22:04;;;;;;;2.27;0.63;;;;;;;14.09;100.00;100753.63;5053619;28;20598;-66
2024/04/07 01:24:32;;;;;;;2.70;1.00;;;;;;;14.03;100.00;100744.81;5054172;28;20541;-66
2024/04/07 01:26:57;;;;;;;2.50;0.77;;;;;;;14.05;100.00;100744.47;5054094;28;20445;-66
2024/04/07 01:29:24;;;;;;;2.37;0.70;;;;;;;14.06;100.00;100743.34;5051718;28;20537;-67
2024/04/07 01:31:50;;;;;;;3.37;1.10;;;;;;;14.03;100.00;100738.53;5054192;28;20227;-67
2024/04/07 01:34:16;;;;;;;2.57;0.93;;;;;;;14.04;100.00;100745.59;5053287;28;20512;-67
2024/04/07 01:36:42;;;;;;;6.73;1.23;;;;;;;13.97;100.00;100745.28;5053611;28;20772;-67
2024/04/07 01:39:09;;;;;;;2.70;0.73;;;;;;;13.94;100.00;100737.72;5053334;28;20504;-67
2024/04/07 01:41:36;;;;;;;3.10;1.10;;;;;;;13.86;100.00;100731.97;5054024;28;20470;-67
2024/04/07 01:44:03;;;;;;;3.90;1.67;;;;;;;13.84;100.00;100717.88;5052512;28;20478;-67
2024/04/07 01:46:29;;;;;;;2.40;0.80;;;;;;;13.80;100.00;100718.81;5064999;22;22078;-69
2024/04/07 01:48:55;;;;;;;4.13;1.20;;;;;;;13.78;100.00;100721.88;5052968;28;20535;-69
2024/04/07 01:51:21;;;;;;;2.57;0.63;;;;;;;13.77;100.00;100712.09;5051390;28;20200;-69
2024/04/07 01:53:48;;;;;;;2.50;0.70;;;;;;;13.72;100.00;100706.78;5051429;28;20557;-69
2024/04/07 01:56:13;;;;;;;2.70;0.90;;;;;;;13.73;100.00;100711.16;5051578;28;20223;-69
2024/04/07 01:58:41;;;;;;;3.13;0.90;;;;;;;13.72;100.00;100709.53;5051052;28;20547;-69
2024/04/07 02:01:07;;;;;;;2.80;0.70;;;;;;;13.74;100.00;100707.28;5051557;28;20286;-68
2024/04/07 02:03:34;;;;;;;2.60;0.70;;;;;;;13.75;100.00;100700.72;5053056;28;20557;-68
2024/04/07 02:06:00;;;;;;;2.67;0.87;;;;;;;13.77;100.00;100700.41;5053440;28;20247;-68
2024/04/07 02:08:27;;;;;;;2.30;0.70;;;;;;;13.76;100.00;100706.97;5053562;28;20446;-69
2024/04/07 02:10:53;;;;;;;2.43;0.70;;;;;;;13.72;100.00;100698.63;5052468;28;20474;-69
2024/04/07 02:13:19;;;;;;;3.57;0.97;;;;;;;13.70;100.00;100697.38;5053722;28;20462;-69
2024/04/07 02:15:48;;;;;;;2.30;0.40;;;;;;;13.67;100.00;100696.06;5051696;28;20230;-69
2024/04/07 02:18:15;;;;;;;3.07;0.80;;;;;;;13.70;100.00;100692.72;5054053;28;20827;-68
2024/04/07 02:20:41;;;;;;;2.30;0.60;;;;;;;13.71;100.00;100690.78;5044075;28;20800;-68
2024/04/07 02:23:07;;;;;;;2.13;0.50;;;;;;;13.69;100.00;100688.41;5046213;28;20480;-68
2024/04/07 02:25:33;;;;;;;2.70;1.10;;;;;;;13.66;100.00;100683.59;5051819;28;20195;-68
2024/04/07 02:28:00;;;;;;;2.30;0.60;;;;;;;13.69;100.00;100690.31;5053228;28;20533;-68
2024/04/07 02:30:25;;;;;;;2.87;0.90;;;;;;;13.66;100.00;100675.41;5052305;28;20204;-68
2024/04/07 02:32:53;;;;;;;2.27;0.73;;;;;;;13.64;100.00;100674.94;5052684;28;20470;-68
2024/04/07 02:35:19;;;;;;;2.83;0.90;;;;;;;13.63;100.00;100682.31;5052465;28;20691;-68
2024/04/07 02:37:45;;;;;;;2.40;0.70;;;;;;;13.61;100.00;100678.31;5053005;28;20534;-68
2024/04/07 02:40:11;;;;;;;2.57;0.60;;;;;;;13.61;100.00;100683.75;5051858;28;20227;-68
2024/04/07 02:42:38;;;;;;;2.63;0.73;;;;;;;13.62;100.00;100685.34;5050772;28;20874;-68
2024/04/07 02:48:08;;;;;;;2.60;0.90;;;;;;;13.58;100.00;100682.44;5053299;28;20484;-68
2024/04/07 02:50:37;;;;;;;2.63;0.90;;;;;;;13.60;100.00;100674.78;5052399;28;20487;-68
2024/04/07 02:53:04;;;;;;;2.23;0.63;;;;;;;13.61;100.00;100687.25;5050091;28;21032;-68
2024/04/07 02:55:29;;;;;;;4.13;1.20;;;;;;;13.63;100.00;100684.22;5050229;28;21013;-68
2024/04/07 02:57:56;;;;;;;2.20;0.57;;;;;;;13.68;100.00;100683.25;5052118;28;20450;-68
2024/04/07 03:00:22;;;;;;;2.20;0.60;;;;;;;13.73;100.00;100677.69;5052396;28;20277;-68
2024/04/07 03:02:49;;;;;;;2.17;0.50;;;;;;;13.77;100.00;100675.91;5051062;28;20505;-68
2024/04/07 03:05:16;;;;;;;3.37;1.20;;;;;;;13.81;100.00;100669.50;5052298;28;20239;-68
2024/04/07 03:07:46;;;;;;;2.67;0.73;;;;;;;13.91;100.00;100670.31;5052876;28;20442;-68
2024/04/07 03:10:12;;;;;;;2.87;0.83;;;;;;;13.95;100.00;100671.28;5052397;28;20541;-68
2024/04/07 03:12:38;;;;;;;3.13;1.00;;;;;;;14.02;99.36;100680.53;5052256;28;20484;-68
2024/04/07 03:15:05;;;;;;;2.83;0.60;;;;;;;14.09;98.68;100677.34;5050797;28;20466;-68
2024/04/07 03:17:32;;;;;;;2.70;0.90;;;;;;;14.14;98.19;100679.91;5049780;28;20451;-68
2024/04/07 03:19:57;;;;;;;2.60;0.80;;;;;;;14.21;98.03;100685.66;5052355;28;20517;-69
2024/04/07 03:22:24;;;;;;;2.90;0.87;;;;;;;14.27;98.10;100681.63;5053559;28;20581;-68
2024/04/07 03:24:51;;;;;;;2.87;0.97;;;;;;;14.34;98.01;100687.41;5040451;28;20204;-68
2024/04/07 03:27:18;;;;;;;2.53;0.70;;;;;;;14.37;98.48;100691.41;5055108;28;20454;-68
2024/04/07 03:29:43;;;;;;;2.60;0.90;;;;;;;14.38;99.24;100690.25;5056053;28;20542;-68
2024/04/07 03:32:10;;;;;;;3.33;1.23;;;;;;;14.40;98.85;100693.47;5055850;28;20532;-68
2024/04/07 03:34:35;;;;;;;3.00;1.00;;;;;;;14.44;98.48;100688.19;5055057;28;20378;-68
2024/04/07 03:37:04;;;;;;;4.00;1.20;;;;;;;14.46;98.99;100684.00;5055541;28;20570;-68
2024/04/07 03:39:31;;;;;;;2.67;0.90;;;;;;;14.45;99.33;100687.06;5055768;28;20207;-68
2024/04/07 03:41:59;;;;;;;2.70;0.90;;;;;;;14.42;99.19;100684.97;5055824;28;20442;-68
2024/04/07 03:44:26;;;;;;;2.50;0.73;;;;;;;14.36;99.60;100685.16;5041287;28;20483;-68
2024/04/07 03:46:53;;;;;;;2.27;0.63;;;;;;;14.36;99.71;100676.97;5055831;28;20820;-67
2024/04/07 03:49:19;;;;;;;2.83;0.80;;;;;;;14.35;100.00;100678.09;5055874;28;20452;-67
2024/04/07 03:51:46;;;;;;;2.20;0.60;;;;;;;14.30;100.00;100667.38;5055280;28;20454;-68
2024/04/07 03:54:11;;;;;;;2.40;0.90;;;;;;;14.26;100.00;100682.78;5053008;28;20224;-68
2024/04/07 03:56:38;;;;;;;2.60;0.80;;;;;;;14.28;99.22;100679.72;5051238;28;20515;-68
2024/04/07 03:59:05;;;;;;;4.73;0.70;;;;;;;14.32;98.27;100681.47;5050529;28;20295;-68
2024/04/07 04:01:33;;;;;;;2.47;0.90;;;;;;;14.36;97.64;100679.69;5053791;28;20508;-68
2024/04/07 04:03:59;;;;;;;6.00;1.03;;;;;;;14.38;96.47;100674.72;5055189;28;20482;-68
2024/04/07 04:06:26;;;;;;;2.30;0.60;;;;;;;14.43;95.40;100672.94;5054967;28;20454;-68
2024/04/07 04:08:52;;;;;;;2.50;0.73;;;;;;;14.49;94.60;100669.75;5054117;28;20203;-70
2024/04/07 04:11:18;;;;;;;2.27;0.57;;;;;;;14.53;94.16;100667.97;5055489;28;20504;-69
2024/04/07 04:13:48;;;;;;;2.97;1.13;;;;;;;14.56;93.52;100661.84;5054127;28;20302;-69
2024/04/07 04:16:16;;;;;;;2.90;1.23;;;;;;;14.60;92.82;100662.00;5055195;28;21008;-69
2024/04/07 04:18:42;;;;;;;3.63;1.13;;;;;;;14.63;92.12;100661.38;5054379;28;20469;-69
2024/04/07 04:21:10;;;;;;;3.20;1.20;;;;;;;14.62;90.92;100657.84;5055568;28;20521;-69
2024/04/07 04:23:37;;;;;;;3.23;1.03;;;;;;;14.62;89.65;100659.78;5054669;28;20227;-69
2024/04/07 04:26:03;;;;;;;3.77;1.07;;;;;;;14.64;88.03;100657.50;5055136;28;20934;-69
2024/04/07 04:28:30;;;;;;;2.80;0.83;;;;;;;14.61;87.85;100660.91;5054472;28;20468;-69
2024/04/07 04:30:56;;;;;;;5.37;0.80;;;;;;;14.57;86.48;100657.22;5054148;28;20472;-69
2024/04/07 04:33:26;;;;;;;3.90;1.00;;;;;;;14.60;86.31;100654.63;5053862;28;20505;-69
2024/04/07 04:35:52;;;;;;;2.70;0.90;;;;;;;14.64;86.92;100649.34;5054648;28;20565;-69
2024/04/07 04:38:19;;;;;;;4.70;1.53;;;;;;;14.69;86.22;100648.34;5054591;28;21001;-69
2024/04/07 04:40:51;;;;;;;2.60;1.00;;;;;;;14.75;86.36;100638.88;5053603;28;20497;-69
2024/04/07 04:43:19;;;;;;;2.80;1.10;;;;;;;14.80;86.44;100639.50;5046552;28;20903;-69
2024/04/07 04:45:44;;;;;;;2.80;1.10;;;;;;;14.82;86.45;100639.94;5054404;28;20458;-70
2024/04/07 04:48:11;;;;;;;2.87;0.93;;;;;;;14.85;85.96;100638.50;5053606;28;20470;-69
2024/04/07 04:50:38;;;;;;;2.87;0.97;;;;;;;14.87;86.10;100641.69;5053902;28;20702;-69
2024/04/07 04:53:04;;;;;;;2.90;1.07;;;;;;;14.92;85.52;100649.72;5053859;28;20564;-69
2024/04/07 04:55:31;;;;;;;11.07;1.83;;;;;;;14.98;84.85;100642.13;5052697;28;20538;-69
2024/04/07 04:57:58;;;;;;;3.37;1.30;;;;;;;14.97;84.98;100644.06;5053598;28;20462;-69
2024/04/07 05:00:26;;;;;;;3.43;0.90;;;;;;;15.02;84.74;100640.34;5053240;28;20459;-69
2024/04/07 05:02:52;;;;;;;6.27;0.93;;;;;;;15.05;84.45;100650.59;5052122;28;20481;-69
2024/04/07 05:05:18;;;;;;;2.63;1.00;;;;;;;15.10;83.50;100650.41;5054479;28;20541;-69
2024/04/07 05:07:47;;;;;;;6.33;1.10;;;;;;;15.15;83.11;100644.78;5052621;28;20529;-69
2024/04/07 05:10:12;;;;;;;7.60;2.33;;;;;;;15.21;83.16;100639.91;5052540;28;20298;-69
2024/04/07 05:12:39;;;;;;;18.77;2.27;;;;;;;15.24;83.04;100647.44;5053637;28;20959;-68
2024/04/07 05:15:05;;;;;;;3.17;1.40;;;;;;;15.29;82.60;100648.03;5053187;28;20196;-68
2024/04/07 05:17:33;;;;;;;3.27;1.67;;;;;;;15.32;82.58;100646.59;5053201;28;20994;-68
2024/04/07 05:19:59;;;;;;;3.50;1.53;;;;;;;15.29;81.99;100653.50;5053456;28;20511;-68
2024/04/07 05:22:25;;;;;;;4.40;1.60;;;;;;;15.33;81.74;100665.34;5052323;28;20860;-69
2024/04/07 05:24:52;;;;;;;2.90;1.30;;;;;;;15.34;83.21;100666.94;5054311;28;20294;-69
2024/04/07 05:27:19;;;;;;;3.80;1.80;;;;;;;15.30;84.31;100671.47;5052524;28;20478;-69
2024/04/07 05:29:47;;;;;;;3.77;1.50;;;;;;;15.23;85.79;100670.38;5053357;28;20473;-69
2024/04/07 05:32:13;;;;;;;8.73;1.70;;;;;;;15.22;86.57;100674.25;5051626;28;20495;-69
2024/04/07 05:34:39;;;;;;;3.73;1.57;;;;;;;15.18;87.78;100668.66;5054158;28;20493;-69
2024/04/07 05:37:06;;;;;;;2.83;1.23;;;;;;;15.24;87.84;100680.19;5053364;28;20985;-69
2024/04/07 05:39:32;;;;;;;4.00;1.50;;;;;;;15.30;86.61;100685.13;5052678;28;20968;-69
2024/04/07 05:42:00;;;;;;;4.37;1.63;;;;;;;15.39;85.13;100690.53;5053111;28;20454;-69
2024/04/07 05:44:26;;;;;;;3.23;1.20;;;;;;;15.45;83.32;100689.22;5052304;28;20270;-69
2024/04/07 05:46:53;;;;;;;3.93;1.50;;;;;;;15.59;81.34;100699.88;5053140;28;20486;-69
2024/04/07 05:49:18;;;;;;;3.80;1.13;;;;;;;15.64;80.28;100708.69;5052650;28;20211;-69
2024/04/07 05:51:45;;;;;;;3.23;1.27;;;;;;;15.68;79.66;100719.75;5052438;28;20826;-69
2024/04/07 05:54:11;;;;;;;3.17;1.57;;;;;;;15.79;80.29;100734.63;5053854;28;20266;-69
2024/04/07 05:56:37;;;;;;;3.90;1.70;;;;;;;15.92;81.31;100729.22;5052338;28;20514;-69
2024/04/07 05:59:04;;;;;;;4.43;1.33;;;;;;;16.05;78.13;100728.94;5048641;28;20295;-69
2024/04/07 06:01:31;;;;;;;6.13;1.63;;;;;;;16.21;78.20;100737.34;5036943;28;20799;-69
2024/04/07 06:03:56;;;;;;;9.93;2.30;;;;;;;16.33;79.23;100745.56;5038565;28;20463;-69
2024/04/07 06:06:23;;;;;;;3.10;1.40;;;;;;;16.49;77.94;100764.09;5052773;28;20478;-67
2024/04/07 06:08:49;;;;;;;4.57;1.90;;;;;;;16.72;74.32;100789.13;5034621;28;20207;-69
2024/04/07 06:11:15;;;;;;;3.67;1.57;;;;;;;16.93;73.67;100791.84;5033865;28;20537;-69
2024/04/07 06:13:42;;;;;;;3.33;1.70;;;;;;;17.12;70.67;100786.63;5034259;28;20459;-68
2024/04/07 06:16:10;;;;;;;4.20;1.73;;;;;;;17.30;70.18;100782.53;5042913;28;20520;-67
2024/04/07 06:18:37;;;;;;;4.20;1.70;;;;;;;17.45;70.20;100783.03;5053467;28;20500;-68
2024/04/07 06:21:07;;;;;;;4.03;1.60;;;;;;;17.55;70.33;100774.34;5036777;28;20442;-67
2024/04/07 06:23:32;;;;;;;3.77;1.20;;;;;;;17.69;69.67;100790.41;5040575;28;20463;-67
2024/04/07 06:25:59;;;;;;;2.83;1.20;;;;;;;17.82;66.06;100779.13;5040665;28;20500;-67
2024/04/07 06:28:25;;;;;;;3.33;1.73;;;;;;;17.93;66.23;100773.16;5053723;28;20211;-68
2024/04/07 06:30:51;;;;;;;3.47;1.20;;;;;;;17.95;68.38;100770.88;5053162;28;20441;-68
2024/04/07 06:33:21;;;;;;;3.63;1.33;;;;;;;17.97;68.81;100776.81;5052969;28;20334;-68
2024/04/07 06:35:47;;;;;;;4.07;1.80;;;;;;;18.00;70.09;100774.19;5038223;28;20479;-68
2024/04/07 06:38:13;;;;;;;3.63;1.50;;;;;;;18.11;68.81;100769.81;5053261;28;20521;-68
2024/04/07 06:40:40;;;;;;;3.57;1.60;;;;;;;18.21;69.84;100782.22;5052643;28;20473;-68
2024/04/07 06:43:05;;;;;;;3.53;1.50;;;;;;;18.27;65.34;100785.53;5052978;28;20247;-68
2024/04/07 06:45:32;;;;;;;3.67;1.97;;;;;;;18.41;64.45;100786.72;5052999;28;20446;-68
2024/04/07 06:47:58;;;;;;;2.77;1.07;;;;;;;18.51;64.79;100779.94;5051202;28;20208;-68
2024/04/07 06:50:25;;;;;;;11.67;2.13;;;;;;;18.61;65.14;100792.38;5052763;28;20815;-68
2024/04/07 06:52:51;;;;;;;2.63;0.87;;;;;;;18.61;65.43;100790.41;5052300;28;20222;-68
2024/04/07 06:55:19;;;;;;;4.13;1.47;;;;;;;18.69;61.50;100787.88;5052609;28;20811;-68
2024/04/07 06:57:45;;;;;;;3.83;1.47;;;;;;;18.86;61.29;100796.63;5049346;28;20220;-68
2024/04/07 07:00:12;;;;;;;3.50;1.23;;;;;;;19.00;60.52;100798.94;5052145;28;20491;-68
2024/04/07 07:02:38;;;;;;;3.17;1.00;;;;;;;19.16;59.80;100809.91;5056217;28;20220;-68
2024/04/07 07:05:06;;;;;;;3.87;1.20;;;;;;;19.26;61.22;100808.63;5056893;28;20445;-69
2024/04/07 07:07:33;;;;;;;2.87;0.93;;;;;;;19.39;59.07;100821.09;5056443;28;20195;-68
2024/04/07 07:09:59;;;;;;;2.70;1.10;;;;;;;19.49;59.57;100822.50;5055922;28;20516;-69
2024/04/07 07:12:25;;;;;;;4.57;1.40;;;;;;;19.60;58.63;100824.38;5056430;28;21053;-68
2024/04/07 07:14:52;;;;;;;7.20;1.83;;;;;;;19.65;58.93;100835.09;5055257;28;20525;-67
2024/04/07 07:17:18;;;;;;;4.10;1.23;;;;;;;19.70;59.47;100845.06;5056096;28;20303;-67
2024/04/07 07:19:45;;;;;;;2.80;1.20;;;;;;;19.78;58.43;100846.00;5056324;28;20525;-67
2024/04/07 07:22:11;;;;;;;3.40;1.07;;;;;;;19.81;58.85;100848.84;5056092;28;20231;-67
2024/04/07 07:24:39;;;;;;;5.30;1.70;;;;;;;19.88;57.50;100849.00;5055693;28;20470;-67
2024/04/07 07:27:05;;;;;;;3.03;1.13;;;;;;;19.95;57.72;100859.34;5050942;28;20458;-67
2024/04/07 07:29:31;;;;;;;3.50;1.40;;;;;;;19.98;56.10;100874.34;5051973;28;20517;-67
2024/04/07 07:31:57;;;;;;;3.47;1.20;;;;;;;20.05;57.48;100860.75;5056472;28;20311;-69
2024/04/07 07:34:23;;;;;;;3.30;1.43;;;;;;;20.04;59.85;100875.66;5054716;28;20965;-69
2024/04/07 07:36:49;;;;;;;2.70;1.10;;;;;;;20.07;57.47;100869.47;5052180;28;20648;-69
2024/04/07 07:39:16;;;;;;;4.40;1.33;;;;;;;20.17;57.39;100886.19;5056341;28;20477;-69
2024/04/07 07:41:43;;;;;;;3.13;1.27;;;;;;;20.26;57.24;100888.75;5055968;28;20206;-70
2024/04/07 07:44:09;;;;;;;3.17;0.83;;;;;;;20.32;57.41;100892.81;5056080;28;20512;-70
2024/04/07 07:46:35;;;;;;;3.20;1.17;;;;;;;20.38;54.96;100883.13;5055465;28;20930;-69
2024/04/07 07:49:02;;;;;;;3.40;1.17;;;;;;;20.46;54.76;100889.59;5056258;28;20521;-69
2024/04/07 07:51:28;;;;;;;3.73;0.97;;;;;;;20.53;54.23;100888.94;5055537;28;20214;-69
2024/04/07 07:53:55;;;;;;;2.77;0.93;;;;;;;20.66;55.87;100887.66;5055721;28;20953;-69
2024/04/07 07:56:21;;;;;;;3.20;1.00;;;;;;;20.74;57.00;100900.41;5055405;28;20354;-69
2024/04/07 07:58:49;;;;;;;3.80;1.13;;;;;;;20.84;55.65;100899.03;5055757;28;20477;-70
2024/04/07 08:01:14;;;;;;;3.23;1.30;;;;;;;20.91;55.61;100913.75;5055534;28;20239;-69
2024/04/07 08:03:41;;;;;;;3.30;1.17;;;;;;;20.96;53.87;100917.38;5055474;28;20498;-70
2024/04/07 08:06:07;;;;;;;3.27;1.20;;;;;;;20.97;54.60;100916.19;5055225;28;20210;-69
2024/04/07 08:08:33;;;;;;;3.23;1.27;;;;;;;20.98;53.74;100924.09;5054611;28;20446;-69
2024/04/07 08:10:59;;;;;;;3.53;1.30;;;;;;;20.99;54.94;100936.72;5054285;28;20298;-70
2024/04/07 08:13:26;;;;;;;3.20;1.10;;;;;;;21.07;53.47;100932.94;5055663;28;20958;-69
2024/04/07 08:15:54;;;;;;;2.83;1.00;;;;;;;21.15;52.60;100926.41;5055251;28;20199;-70
2024/04/07 08:18:20;;;;;;;2.60;1.00;;;;;;;21.29;51.33;100933.34;5054285;28;20482;-70
2024/04/07 08:20:47;;;;;;;2.30;0.50;;;;;;;21.45;50.51;100939.59;5055163;28;20441;-70
2024/04/07 08:23:15;;;;;;;3.20;0.90;;;;;;;21.59;50.44;100942.59;5054834;28;20497;-70
2024/04/07 08:25:42;;;;;;;4.60;1.13;;;;;;;21.77;50.60;100955.88;5053337;28;20799;-70
2024/04/07 08:28:08;;;;;;;2.90;0.90;;;;;;;21.90;49.19;100951.78;5054241;28;20426;-72
2024/04/07 08:30:35;;;;;;;2.90;1.10;;;;;;;22.02;47.82;100945.28;5054907;28;20443;-73
2024/04/07 08:33:02;;;;;;;3.03;1.07;;;;;;;22.11;48.74;100946.59;5058974;22;20569;-69
2024/04/07 08:35:29;;;;;;;2.70;1.10;;;;;;;22.23;48.26;100964.16;5055259;28;20594;-71
2024/04/07 08:37:54;;;;;;;3.27;1.00;;;;;;;22.26;47.97;100957.88;5055654;28;20486;-70
2024/04/07 08:40:21;;;;;;;3.00;1.00;;;;;;;22.28;48.16;100970.16;5055165;28;20881;-70
2024/04/07 08:42:49;;;;;;;3.07;0.80;;;;;;;22.38;47.89;100977.78;5054875;28;20251;-70
2024/04/07 08:45:19;;;;;;;5.57;0.90;;;;;;;22.40;47.53;100969.94;5055051;28;20454;-70
2024/04/07 08:47:46;;;;;;;2.70;0.90;;;;;;;22.47;46.95;100976.72;5055427;28;20438;-70
2024/04/07 08:50:15;;;;;;;2.40;0.70;;;;;;;22.50;47.09;100974.03;5055061;28;20533;-69
2024/04/07 08:52:43;;;;;;;2.90;1.03;;;;;;;22.60;47.30;100967.06;5054840;28;20537;-69
2024/04/07 08:55:10;;;;;;;7.20;0.97;;;;;;;22.76;46.53;100975.19;5055115;28;20442;-70
2024/04/07 08:57:37;;;;;;;4.00;1.40;;;;;;;22.87;46.89;100998.97;5054733;28;20850;-70
2024/04/07 09:00:05;;;;;;;3.20;0.90;;;;;;;23.03;47.60;101004.38;5054787;28;20442;-70
2024/04/07 09:02:31;;;;;;;2.93;1.00;;;;;;;23.15;45.86;100998.59;5055152;28;20997;-69
2024/04/07 09:04:58;;;;;;;5.87;1.37;;;;;;;23.17;45.76;100989.91;5054427;28;20446;-70
2024/04/07 09:07:25;;;;;;;3.53;0.83;;;;;;;23.10;45.65;101007.19;5054454;28;20254;-70
2024/04/07 09:09:52;;;;;;;2.80;0.97;;;;;;;23.11;45.45;101008.03;5054516;28;20507;-70
2024/04/07 09:12:18;;;;;;;3.20;1.30;;;;;;;23.10;45.07;101017.47;5054871;28;20878;-70
2024/04/07 09:14:48;;;;;;;5.43;1.10;;;;;;;22.98;45.46;101020.47;5054424;28;20442;-70
2024/04/07 09:17:14;;;;;;;4.30;1.40;;;;;;;22.88;45.49;101027.41;5054184;28;20345;-70
2024/04/07 09:19:40;;;;;;;3.37;1.17;;;;;;;22.88;45.47;101035.69;5054345;28;20519;-70
2024/04/07 09:22:07;;;;;;;3.30;1.03;;;;;;;22.88;45.90;101032.94;5054603;28;20652;-70
2024/04/07 09:24:38;;;;;;;2.63;0.90;;;;;;;22.84;46.38;101034.84;5055053;28;20438;-70
2024/04/07 09:27:06;;;;;;;11.53;0.97;;;;;;;22.77;47.11;101041.09;5054235;28;20434;-70
2024/04/07 09:29:34;;;;;;;2.97;1.00;;;;;;;22.82;47.14;101040.75;5054173;28;20446;-70
2024/04/07 09:32:01;;;;;;;2.80;1.03;;;;;;;22.72;46.53;101033.13;5054349;28;20856;-70
2024/04/07 09:34:31;;;;;;;3.67;0.90;;;;;;;22.68;47.11;101048.84;5054263;28;20481;-69
2024/04/07 09:36:59;;;;;;;3.40;1.33;;;;;;;22.64;47.32;101045.22;5054193;28;20500;-70
2024/04/07 09:39:26;;;;;;;3.10;1.20;;;;;;;22.61;47.48;101037.69;5053803;28;20512;-70
2024/04/07 09:41:54;;;;;;;3.13;1.00;;;;;;;22.54;47.10;101048.63;5054042;28;20456;-70
2024/04/07 09:44:21;;;;;;;2.50;0.90;;;;;;;22.46;47.89;101055.22;5054172;28;20491;-69
2024/04/07 09:46:47;;;;;;;2.80;1.00;;;;;;;22.45;48.23;101048.09;5053675;28;20517;-69
2024/04/07 09:49:14;;;;;;;4.00;1.13;;;;;;;22.41;48.12;101050.81;5053872;28;20439;-70
2024/04/07 09:51:42;;;;;;;2.80;0.90;;;;;;;22.38;48.61;101044.03;5054106;28;20525;-70
2024/04/07 09:54:16;;;;;;;5.53;1.57;;;;;;;22.44;48.22;101046.47;5053459;28;20977;-70
2024/04/07 09:56:42;;;;;;;5.10;0.93;;;;;;;22.40;48.63;101047.25;5053340;28;20795;-71
2024/04/07 09:59:11;;;;;;;4.00;1.40;;;;;;;22.50;48.77;101056.84;5053673;28;20516;-70
2024/04/07 10:01:37;;;;;;;3.20;1.07;;;;;;;22.56;48.77;101054.56;5054259;28;20525;-70
2024/04/07 10:04:04;;;;;;;4.10;0.97;;;;;;;22.59;49.79;101048.31;5053749;28;20462;-70
2024/04/07 10:06:31;;;;;;;2.80;0.90;;;;;;;22.71;48.88;101067.44;5053664;28;20446;-70
2024/04/07 10:08:59;;;;;;;4.30;0.87;;;;;;;22.81;49.22;101058.50;5053637;28;20443;-70
2024/04/07 10:11:25;;;;;;;2.57;0.87;;;;;;;22.79;49.28;101068.31;5053572;28;20437;-70
2024/04/07 10:13:51;;;;;;;4.50;1.30;;;;;;;22.91;49.73;101070.91;5053456;28;20565;-70
2024/04/07 10:16:19;;;;;;;16.70;1.47;;;;;;;22.84;48.19;101077.09;5053177;28;20226;-70
2024/04/07 10:18:48;;;;;;;5.60;1.33;;;;;;;22.63;48.03;101076.78;5053180;28;20513;-70
2024/04/07 10:21:13;;;;;;;4.17;1.20;;;;;;;22.61;49.94;101079.91;5053605;28;20462;-70
2024/04/07 10:23:42;;;;;;;5.40;1.87;;;;;;;22.65;48.89;101080.75;5048853;28;20517;-70
2024/04/07 10:26:09;;;;;;;2.97;1.07;;;;;;;22.72;48.74;101082.03;5052860;28;20204;-70
2024/04/07 10:28:46;;;;;;;2.90;0.90;;;;;;;22.70;49.18;101090.69;5053623;28;20462;-72
2024/04/07 10:31:13;;;;;;;4.23;1.43;;;;;;;22.67;49.93;101099.72;5056525;28;20426;-70
2024/04/07 10:33:41;;;;;;;3.63;1.17;;;;;;;22.76;49.79;101091.97;5059243;28;20560;-70
2024/04/07 10:36:16;;;;;;;3.13;1.13;;;;;;;22.83;50.06;101103.13;5060365;28;20450;-70
2024/04/07 10:38:51;;;;;;;3.33;1.10;;;;;;;22.84;50.35;101101.97;5060277;28;20476;-70
2024/04/07 10:41:22;;;;;;;5.13;2.03;;;;;;;22.77;50.35;101104.63;5059648;28;20801;-70
2024/04/07 10:43:48;;;;;;;3.77;1.00;;;;;;;22.80;49.92;101105.81;5059872;28;20515;-70
2024/04/07 10:46:17;;;;;;;3.27;0.97;;;;;;;22.73;51.33;101106.53;5059582;28;20443;-70
2024/04/07 10:48:44;;;;;;;3.07;1.10;;;;;;;22.71;49.89;101108.06;5059602;28;20442;-70
2024/04/07 10:51:12;;;;;;;2.83;0.80;;;;;;;22.72;49.64;101113.22;5060040;28;20445;-70
2024/04/07 10:53:38;;;;;;;2.50;0.80;;;;;;;22.76;50.09;101107.75;5059551;28;20488;-70
2024/04/07 10:56:05;;;;;;;3.53;1.27;;;;;;;22.73;50.38;101102.97;5060163;28;20472;-70
2024/04/07 10:58:31;;;;;;;2.60;0.83;;;;;;;22.70;50.09;101107.25;5059699;28;20565;-70
2024/04/07 11:00:57;;;;;;;2.87;1.00;;;;;;;22.65;49.94;101118.63;5059820;28;20492;-70
2024/04/07 11:03:25;;;;;;;6.10;1.43;;;;;;;22.77;50.06;101104.63;5059663;28;20314;-70
2024/04/07 11:05:54;;;;;;;3.17;1.13;;;;;;;22.95;49.77;101109.66;5060081;28;20507;-70
2024/04/07 11:08:20;;;;;;;2.77;0.97;;;;;;;23.10;49.71;101111.44;5059123;28;20452;-70
2024/04/07 11:10:51;;;;;;;2.70;1.00;;;;;;;23.08;49.01;101111.03;5060033;28;20544;-70
2024/04/07 11:13:17;;;;;;;5.70;1.00;;;;;;;23.13;49.38;101118.97;5039927;28;20455;-70
2024/04/07 11:15:45;;;;;;;2.50;0.70;;;;;;;23.25;49.24;101129.81;5050233;28;20816;-70
2024/04/07 11:18:14;;;;;;;3.13;0.90;;;;;;;23.27;49.08;101121.13;5059519;28;20901;-70
2024/04/07 11:20:41;;;;;;;2.80;0.90;;;;;;;23.36;49.23;101122.44;5059514;28;20864;-70
2024/04/07 11:23:09;;;;;;;2.80;0.93;;;;;;;23.50;48.53;101123.81;5059887;28;20462;-70